sensor_id;sensor_type;location;lat;lon;timestamp;P1;durP1;ratioP1;P2;durP2;ratioP2
19456;SDS011;9867;48.094;11.478;2023-04-03T00:00:40;8.57;;;7.77;;
19456;SDS011;9867;48.094;11.478;2023-04-03T00:03:09;10.73;;;8.40;;
19456;SDS011;9867;48.094;11.478;2023-04-03T00:05:37;9.43;;;8.50;;
19456;SDS011;9867;48.094;11.478;2023-04-03T00:08:04;9.00;;;8.10;;
19456;SDS011;9867;48.094;11.478;2023-04-03T00:10:34;10.57;;;9.00;;
19456;SDS011;9867;48.094;11.478;2023-04-03T00:13:03;8.97;;;8.13;;
19456;SDS011;9867;48.094;11.478;2023-04-03T00:15:32;8.87;;;8.07;;
19456;SDS011;9867;48.094;11.478;2023-04-03T00:18:00;9.73;;;8.83;;
19456;SDS011;9867;48.094;11.478;2023-04-03T00:20:30;10.10;;;8.50;;
19456;SDS011;9867;48.094;11.478;2023-04-03T00:22:59;10.30;;;8.53;;
19456;SDS011;9867;48.094;11.478;2023-04-03T00:25:27;9.20;;;8.40;;
19456;SDS011;9867;48.094;11.478;2023-04-03T00:27:55;9.47;;;8.37;;
19456;SDS011;9867;48.094;11.478;2023-04-03T00:30:23;8.97;;;8.07;;
19456;SDS011;9867;48.094;11.478;2023-04-03T00:32:52;8.83;;;8.03;;
19456;SDS011;9867;48.094;11.478;2023-04-03T00:35:21;9.13;;;8.23;;
19456;SDS011;9867;48.094;11.478;2023-04-03T00:37:53;9.07;;;8.27;;
19456;SDS011;9867;48.094;11.478;2023-04-03T00:40:22;9.10;;;7.87;;
19456;SDS011;9867;48.094;11.478;2023-04-03T00:42:55;9.60;;;8.70;;
19456;SDS011;9867;48.094;11.478;2023-04-03T00:45:26;8.73;;;7.93;;
19456;SDS011;9867;48.094;11.478;2023-04-03T00:47:59;8.90;;;7.80;;
19456;SDS011;9867;48.094;11.478;2023-04-03T00:50:28;8.60;;;7.70;;
19456;SDS011;9867;48.094;11.478;2023-04-03T00:52:58;9.23;;;8.33;;
19456;SDS011;9867;48.094;11.478;2023-04-03T00:55:26;8.57;;;7.77;;
19456;SDS011;9867;48.094;11.478;2023-04-03T00:57:54;8.70;;;7.90;;
19456;SDS011;9867;48.094;11.478;2023-04-03T01:00:23;9.10;;;8.23;;
19456;SDS011;9867;48.094;11.478;2023-04-03T01:02:52;8.63;;;7.83;;
19456;SDS011;9867;48.094;11.478;2023-04-03T01:05:21;8.17;;;7.43;;
19456;SDS011;9867;48.094;11.478;2023-04-03T01:07:50;8.97;;;8.10;;
19456;SDS011;9867;48.094;11.478;2023-04-03T01:10:21;8.70;;;7.90;;
19456;SDS011;9867;48.094;11.478;2023-04-03T01:12:49;8.67;;;7.87;;
19456;SDS011;9867;48.094;11.478;2023-04-03T01:15:18;9.27;;;7.80;;
19456;SDS011;9867;48.094;11.478;2023-04-03T01:17:49;8.77;;;7.97;;
19456;SDS011;9867;48.094;11.478;2023-04-03T01:23:23;9.00;;;8.03;;
19456;SDS011;9867;48.094;11.478;2023-04-03T01:25:57;8.90;;;8.10;;
19456;SDS011;9867;48.094;11.478;2023-04-03T01:28:26;8.40;;;7.50;;
19456;SDS011;9867;48.094;11.478;2023-04-03T01:30:59;9.80;;;7.63;;
19456;SDS011;9867;48.094;11.478;2023-04-03T01:33:34;9.27;;;7.40;;
19456;SDS011;9867;48.094;11.478;2023-04-03T01:36:03;8.10;;;7.30;;
19456;SDS011;9867;48.094;11.478;2023-04-03T01:38:32;8.70;;;6.90;;
19456;SDS011;9867;48.094;11.478;2023-04-03T01:41:00;7.93;;;7.23;;
19456;SDS011;9867;48.094;11.478;2023-04-03T01:43:28;9.37;;;7.50;;
19456;SDS011;9867;48.094;11.478;2023-04-03T01:45:56;7.50;;;6.80;;
19456;SDS011;9867;48.094;11.478;2023-04-03T01:48:24;7.60;;;6.83;;
19456;SDS011;9867;48.094;11.478;2023-04-03T01:50:54;7.60;;;6.90;;
19456;SDS011;9867;48.094;11.478;2023-04-03T01:53:22;7.67;;;6.97;;
19456;SDS011;9867;48.094;11.478;2023-04-03T01:55:50;7.10;;;6.43;;
19456;SDS011;9867;48.094;11.478;2023-04-03T01:58:18;7.97;;;7.27;;
19456;SDS011;9867;48.094;11.478;2023-04-03T02:00:48;8.30;;;7.47;;
19456;SDS011;9867;48.094;11.478;2023-04-03T02:03:16;8.20;;;7.50;;
19456;SDS011;9867;48.094;11.478;2023-04-03T02:05:44;8.20;;;7.40;;
19456;SDS011;9867;48.094;11.478;2023-04-03T02:08:13;8.30;;;7.50;;
19456;SDS011;9867;48.094;11.478;2023-04-03T02:10:41;7.93;;;7.23;;
19456;SDS011;9867;48.094;11.478;2023-04-03T02:13:09;7.83;;;7.07;;
19456;SDS011;9867;48.094;11.478;2023-04-03T02:15:37;7.93;;;7.13;;
19456;SDS011;9867;48.094;11.478;2023-04-03T02:18:05;8.10;;;7.40;;
19456;SDS011;9867;48.094;11.478;2023-04-03T02:20:34;9.07;;;8.17;;
19456;SDS011;9867;48.094;11.478;2023-04-03T02:23:02;8.00;;;7.30;;
19456;SDS011;9867;48.094;11.478;2023-04-03T02:25:32;7.60;;;6.90;;
19456;SDS011;9867;48.094;11.478;2023-04-03T02:28:03;8.33;;;7.53;;
19456;SDS011;9867;48.094;11.478;2023-04-03T02:30:32;7.90;;;7.20;;
19456;SDS011;9867;48.094;11.478;2023-04-03T02:33:00;8.10;;;7.30;;
19456;SDS011;9867;48.094;11.478;2023-04-03T02:35:28;8.40;;;7.60;;
19456;SDS011;9867;48.094;11.478;2023-04-03T02:37:57;8.40;;;7.60;;
19456;SDS011;9867;48.094;11.478;2023-04-03T02:40:25;7.10;;;6.50;;
19456;SDS011;9867;48.094;11.478;2023-04-03T02:42:55;7.73;;;6.93;;
19456;SDS011;9867;48.094;11.478;2023-04-03T02:45:24;9.47;;;7.03;;
19456;SDS011;9867;48.094;11.478;2023-04-03T02:47:52;8.27;;;7.47;;
19456;SDS011;9867;48.094;11.478;2023-04-03T02:50:20;7.97;;;7.27;;
19456;SDS011;9867;48.094;11.478;2023-04-03T02:52:48;7.27;;;6.67;;
19456;SDS011;9867;48.094;11.478;2023-04-03T02:55:16;7.40;;;6.77;;
19456;SDS011;9867;48.094;11.478;2023-04-03T02:57:47;7.50;;;6.43;;
19456;SDS011;9867;48.094;11.478;2023-04-03T03:00:17;7.23;;;6.63;;
19456;SDS011;9867;48.094;11.478;2023-04-03T03:02:45;7.70;;;6.90;;
19456;SDS011;9867;48.094;11.478;2023-04-03T03:05:13;7.93;;;7.23;;
19456;SDS011;9867;48.094;11.478;2023-04-03T03:07:41;7.00;;;6.30;;
19456;SDS011;9867;48.094;11.478;2023-04-03T03:10:09;8.07;;;6.63;;
19456;SDS011;9867;48.094;11.478;2023-04-03T03:12:37;7.53;;;6.83;;
19456;SDS011;9867;48.094;11.478;2023-04-03T03:15:06;7.27;;;6.60;;
19456;SDS011;9867;48.094;11.478;2023-04-03T03:17:36;6.83;;;6.23;;
19456;SDS011;9867;48.094;11.478;2023-04-03T03:20:04;6.73;;;6.13;;
19456;SDS011;9867;48.094;11.478;2023-04-03T03:22:34;7.17;;;6.50;;
19456;SDS011;9867;48.094;11.478;2023-04-03T03:25:03;6.60;;;6.00;;
19456;SDS011;9867;48.094;11.478;2023-04-03T03:27:32;7.73;;;6.90;;
19456;SDS011;9867;48.094;11.478;2023-04-03T03:30:00;7.37;;;6.67;;
19456;SDS011;9867;48.094;11.478;2023-04-03T03:32:28;7.20;;;6.60;;
19456;SDS011;9867;48.094;11.478;2023-04-03T03:34:57;7.97;;;6.27;;
19456;SDS011;9867;48.094;11.478;2023-04-03T03:37:25;6.53;;;5.83;;
19456;SDS011;9867;48.094;11.478;2023-04-03T03:39:53;6.50;;;5.90;;
19456;SDS011;9867;48.094;11.478;2023-04-03T03:42:21;6.17;;;5.67;;
19456;SDS011;9867;48.094;11.478;2023-04-03T03:44:49;5.90;;;5.40;;
19456;SDS011;9867;48.094;11.478;2023-04-03T03:47:18;7.47;;;6.47;;
19456;SDS011;9867;48.094;11.478;2023-04-03T03:49:47;5.63;;;5.13;;
19456;SDS011;9867;48.094;11.478;2023-04-03T03:52:16;5.50;;;5.10;;
19456;SDS011;9867;48.094;11.478;2023-04-03T03:54:44;6.20;;;5.63;;
19456;SDS011;9867;48.094;11.478;2023-04-03T03:57:14;5.50;;;5.00;;
19456;SDS011;9867;48.094;11.478;2023-04-03T03:59:43;5.27;;;4.77;;
19456;SDS011;9867;48.094;11.478;2023-04-03T04:02:11;5.37;;;4.97;;
19456;SDS011;9867;48.094;11.478;2023-04-03T04:04:40;5.40;;;4.90;;
19456;SDS011;9867;48.094;11.478;2023-04-03T04:07:09;5.33;;;4.93;;
19456;SDS011;9867;48.094;11.478;2023-04-03T04:09:39;5.63;;;5.03;;
19456;SDS011;9867;48.094;11.478;2023-04-03T04:12:07;5.17;;;4.67;;
19456;SDS011;9867;48.094;11.478;2023-04-03T04:14:36;6.13;;;5.17;;
19456;SDS011;9867;48.094;11.478;2023-04-03T04:17:06;5.43;;;5.03;;
19456;SDS011;9867;48.094;11.478;2023-04-03T04:19:35;5.23;;;4.47;;
19456;SDS011;9867;48.094;11.478;2023-04-03T04:22:06;5.00;;;4.60;;
19456;SDS011;9867;48.094;11.478;2023-04-03T04:24:34;4.73;;;4.33;;
19456;SDS011;9867;48.094;11.478;2023-04-03T04:27:06;5.43;;;4.50;;
19456;SDS011;9867;48.094;11.478;2023-04-03T04:29:35;5.20;;;4.70;;
19456;SDS011;9867;48.094;11.478;2023-04-03T04:32:05;4.80;;;4.20;;
19456;SDS011;9867;48.094;11.478;2023-04-03T04:34:33;5.03;;;4.20;;
19456;SDS011;9867;48.094;11.478;2023-04-03T04:37:01;4.50;;;4.10;;
19456;SDS011;9867;48.094;11.478;2023-04-03T04:39:29;4.93;;;4.53;;
19456;SDS011;9867;48.094;11.478;2023-04-03T04:41:58;5.87;;;4.33;;
19456;SDS011;9867;48.094;11.478;2023-04-03T04:44:30;4.80;;;4.40;;
19456;SDS011;9867;48.094;11.478;2023-04-03T04:47:00;4.50;;;4.10;;
19456;SDS011;9867;48.094;11.478;2023-04-03T04:49:28;4.77;;;4.37;;
19456;SDS011;9867;48.094;11.478;2023-04-03T04:51:56;4.80;;;4.27;;
19456;SDS011;9867;48.094;11.478;2023-04-03T04:54:28;4.37;;;4.07;;
19456;SDS011;9867;48.094;11.478;2023-04-03T04:56:56;4.73;;;4.33;;
19456;SDS011;9867;48.094;11.478;2023-04-03T04:59:25;4.77;;;4.40;;
19456;SDS011;9867;48.094;11.478;2023-04-03T05:01:57;4.50;;;4.10;;
19456;SDS011;9867;48.094;11.478;2023-04-03T05:04:26;4.30;;;3.90;;
19456;SDS011;9867;48.094;11.478;2023-04-03T05:07:01;4.57;;;4.13;;
19456;SDS011;9867;48.094;11.478;2023-04-03T05:09:31;4.43;;;3.80;;
19456;SDS011;9867;48.094;11.478;2023-04-03T05:11:59;6.20;;;4.67;;
19456;SDS011;9867;48.094;11.478;2023-04-03T05:14:30;4.70;;;4.23;;
19456;SDS011;9867;48.094;11.478;2023-04-03T05:17:08;5.97;;;4.07;;
19456;SDS011;9867;48.094;11.478;2023-04-03T05:19:39;4.80;;;4.40;;
19456;SDS011;9867;48.094;11.478;2023-04-03T05:22:08;5.20;;;4.00;;
19456;SDS011;9867;48.094;11.478;2023-04-03T05:24:39;4.53;;;4.13;;
19456;SDS011;9867;48.094;11.478;2023-04-03T05:27:07;4.40;;;4.00;;
19456;SDS011;9867;48.094;11.478;2023-04-03T05:29:39;4.50;;;4.10;;
19456;SDS011;9867;48.094;11.478;2023-04-03T05:32:15;4.40;;;4.00;;
19456;SDS011;9867;48.094;11.478;2023-04-03T05:34:47;4.50;;;4.10;;
19456;SDS011;9867;48.094;11.478;2023-04-03T05:37:15;4.57;;;4.10;;
19456;SDS011;9867;48.094;11.478;2023-04-03T05:39:43;4.63;;;4.07;;
19456;SDS011;9867;48.094;11.478;2023-04-03T05:42:11;4.73;;;3.97;;
19456;SDS011;9867;48.094;11.478;2023-04-03T05:44:40;5.23;;;4.10;;
19456;SDS011;9867;48.094;11.478;2023-04-03T05:47:08;4.47;;;4.07;;
19456;SDS011;9867;48.094;11.478;2023-04-03T05:49:37;4.50;;;4.10;;
19456;SDS011;9867;48.094;11.478;2023-04-03T05:52:10;5.53;;;4.30;;
19456;SDS011;9867;48.094;11.478;2023-04-03T05:54:45;4.87;;;4.40;;
19456;SDS011;9867;48.094;11.478;2023-04-03T05:57:20;4.53;;;4.13;;
19456;SDS011;9867;48.094;11.478;2023-04-03T05:59:48;4.57;;;3.83;;
19456;SDS011;9867;48.094;11.478;2023-04-03T06:02:18;4.50;;;4.10;;
19456;SDS011;9867;48.094;11.478;2023-04-03T06:07:50;3.93;;;3.53;;
19456;SDS011;9867;48.094;11.478;2023-04-03T06:10:18;4.17;;;3.77;;
19456;SDS011;9867;48.094;11.478;2023-04-03T06:12:47;4.67;;;3.83;;
19456;SDS011;9867;48.094;11.478;2023-04-03T06:15:15;4.13;;;3.80;;
19456;SDS011;9867;48.094;11.478;2023-04-03T06:17:44;4.70;;;4.30;;
19456;SDS011;9867;48.094;11.478;2023-04-03T06:20:12;4.83;;;4.40;;
19456;SDS011;9867;48.094;11.478;2023-04-03T06:22:40;4.53;;;4.13;;
19456;SDS011;9867;48.094;11.478;2023-04-03T06:25:11;4.33;;;3.90;;
19456;SDS011;9867;48.094;11.478;2023-04-03T06:27:39;4.60;;;4.20;;
19456;SDS011;9867;48.094;11.478;2023-04-03T06:30:08;4.30;;;3.90;;
19456;SDS011;9867;48.094;11.478;2023-04-03T06:32:37;3.97;;;3.67;;
19456;SDS011;9867;48.094;11.478;2023-04-03T06:35:05;5.00;;;4.03;;
19456;SDS011;9867;48.094;11.478;2023-04-03T06:37:34;4.17;;;3.77;;
19456;SDS011;9867;48.094;11.478;2023-04-03T06:40:02;4.57;;;3.90;;
19456;SDS011;9867;48.094;11.478;2023-04-03T06:42:31;5.33;;;4.10;;
19456;SDS011;9867;48.094;11.478;2023-04-03T06:45:07;4.53;;;4.13;;
19456;SDS011;9867;48.094;11.478;2023-04-03T06:47:37;5.93;;;4.20;;
19456;SDS011;9867;48.094;11.478;2023-04-03T06:50:06;4.87;;;4.03;;
19456;SDS011;9867;48.094;11.478;2023-04-03T06:52:35;4.00;;;3.70;;
19456;SDS011;9867;48.094;11.478;2023-04-03T06:55:09;3.97;;;3.67;;
19456;SDS011;9867;48.094;11.478;2023-04-03T06:57:43;4.17;;;3.80;;
19456;SDS011;9867;48.094;11.478;2023-04-03T07:00:12;4.10;;;3.70;;
19456;SDS011;9867;48.094;11.478;2023-04-03T07:03:05;3.90;;;3.60;;
19456;SDS011;9867;48.094;11.478;2023-04-03T07:05:33;4.33;;;3.90;;
19456;SDS011;9867;48.094;11.478;2023-04-03T07:08:02;5.17;;;3.47;;
19456;SDS011;9867;48.094;11.478;2023-04-03T07:10:51;4.17;;;3.77;;
19456;SDS011;9867;48.094;11.478;2023-04-03T07:13:23;4.23;;;3.83;;
19456;SDS011;9867;48.094;11.478;2023-04-03T07:15:52;4.50;;;3.03;;
19456;SDS011;9867;48.094;11.478;2023-04-03T07:18:20;3.47;;;3.17;;
19456;SDS011;9867;48.094;11.478;2023-04-03T07:20:48;4.83;;;3.17;;
19456;SDS011;9867;48.094;11.478;2023-04-03T07:23:16;3.67;;;3.00;;
19456;SDS011;9867;48.094;11.478;2023-04-03T07:25:45;4.03;;;3.30;;
19456;SDS011;9867;48.094;11.478;2023-04-03T07:28:13;5.83;;;3.80;;
19456;SDS011;9867;48.094;11.478;2023-04-03T07:30:44;3.83;;;3.53;;
19456;SDS011;9867;48.094;11.478;2023-04-03T07:33:13;6.40;;;3.53;;
19456;SDS011;9867;48.094;11.478;2023-04-03T07:35:42;3.80;;;3.20;;
19456;SDS011;9867;48.094;11.478;2023-04-03T07:38:11;3.50;;;3.00;;
19456;SDS011;9867;48.094;11.478;2023-04-03T07:40:41;4.03;;;3.27;;
19456;SDS011;9867;48.094;11.478;2023-04-03T07:43:13;3.73;;;3.43;;
19456;SDS011;9867;48.094;11.478;2023-04-03T07:46:12;4.23;;;3.30;;
19456;SDS011;9867;48.094;11.478;2023-04-03T07:48:42;3.60;;;3.30;;
19456;SDS011;9867;48.094;11.478;2023-04-03T07:51:11;4.07;;;3.67;;
19456;SDS011;9867;48.094;11.478;2023-04-03T07:53:40;4.00;;;3.50;;
19456;SDS011;9867;48.094;11.478;2023-04-03T07:56:08;5.50;;;3.67;;
19456;SDS011;9867;48.094;11.478;2023-04-03T07:58:36;4.53;;;4.13;;
19456;SDS011;9867;48.094;11.478;2023-04-03T08:01:06;3.83;;;3.53;;
19456;SDS011;9867;48.094;11.478;2023-04-03T08:03:34;4.10;;;3.80;;
19456;SDS011;9867;48.094;11.478;2023-04-03T08:06:04;4.23;;;3.83;;
19456;SDS011;9867;48.094;11.478;2023-04-03T08:08:40;4.17;;;3.50;;
19456;SDS011;9867;48.094;11.478;2023-04-03T08:11:12;3.93;;;3.63;;
19456;SDS011;9867;48.094;11.478;2023-04-03T08:13:40;4.23;;;3.90;;
19456;SDS011;9867;48.094;11.478;2023-04-03T08:16:11;4.70;;;4.00;;
19456;SDS011;9867;48.094;11.478;2023-04-03T08:18:43;3.77;;;3.23;;
19456;SDS011;9867;48.094;11.478;2023-04-03T08:21:11;4.50;;;3.53;;
19456;SDS011;9867;48.094;11.478;2023-04-03T08:23:40;4.47;;;4.10;;
19456;SDS011;9867;48.094;11.478;2023-04-03T08:26:11;4.13;;;3.70;;
19456;SDS011;9867;48.094;11.478;2023-04-03T08:28:41;6.23;;;4.13;;
19456;SDS011;9867;48.094;11.478;2023-04-03T08:31:12;4.50;;;4.10;;
19456;SDS011;9867;48.094;11.478;2023-04-03T08:33:41;4.70;;;4.30;;
19456;SDS011;9867;48.094;11.478;2023-04-03T08:36:16;5.00;;;4.60;;
19456;SDS011;9867;48.094;11.478;2023-04-03T08:38:45;4.70;;;4.27;;
19456;SDS011;9867;48.094;11.478;2023-04-03T08:41:16;5.10;;;4.67;;
19456;SDS011;9867;48.094;11.478;2023-04-03T08:43:58;5.53;;;4.47;;
19456;SDS011;9867;48.094;11.478;2023-04-03T08:46:50;6.77;;;5.27;;
19456;SDS011;9867;48.094;11.478;2023-04-03T08:49:29;4.90;;;4.40;;
19456;SDS011;9867;48.094;11.478;2023-04-03T08:52:01;5.30;;;4.80;;
19456;SDS011;9867;48.094;11.478;2023-04-03T08:54:33;5.37;;;4.87;;
19456;SDS011;9867;48.094;11.478;2023-04-03T08:57:10;5.67;;;4.50;;
19456;SDS011;9867;48.094;11.478;2023-04-03T08:59:40;4.70;;;4.30;;
19456;SDS011;9867;48.094;11.478;2023-04-03T09:02:24;6.37;;;5.00;;
19456;SDS011;9867;48.094;11.478;2023-04-03T09:04:58;5.30;;;4.80;;
19456;SDS011;9867;48.094;11.478;2023-04-03T09:07:33;7.63;;;4.60;;
19456;SDS011;9867;48.094;11.478;2023-04-03T09:10:08;5.13;;;4.47;;
19456;SDS011;9867;48.094;11.478;2023-04-03T09:12:40;4.60;;;4.10;;
19456;SDS011;9867;48.094;11.478;2023-04-03T09:15:14;6.00;;;4.20;;
19456;SDS011;9867;48.094;11.478;2023-04-03T09:18:04;6.20;;;4.37;;
19456;SDS011;9867;48.094;11.478;2023-04-03T09:20:41;4.60;;;4.20;;
19456;SDS011;9867;48.094;11.478;2023-04-03T09:23:15;4.47;;;4.03;;
19456;SDS011;9867;48.094;11.478;2023-04-03T09:25:49;6.13;;;4.27;;
19456;SDS011;9867;48.094;11.478;2023-04-03T09:28:20;5.80;;;4.80;;
19456;SDS011;9867;48.094;11.478;2023-04-03T09:30:48;5.57;;;3.87;;
19456;SDS011;9867;48.094;11.478;2023-04-03T09:33:18;4.80;;;4.07;;
19456;SDS011;9867;48.094;11.478;2023-04-03T09:35:47;4.70;;;3.73;;
19456;SDS011;9867;48.094;11.478;2023-04-03T09:38:18;5.03;;;4.30;;
19456;SDS011;9867;48.094;11.478;2023-04-03T09:40:48;5.20;;;4.47;;
19456;SDS011;9867;48.094;11.478;2023-04-03T09:43:28;4.67;;;4.23;;
19456;SDS011;9867;48.094;11.478;2023-04-03T09:48:51;4.63;;;4.20;;
19456;SDS011;9867;48.094;11.478;2023-04-03T09:51:33;4.90;;;3.93;;
19456;SDS011;9867;48.094;11.478;2023-04-03T09:54:04;6.07;;;4.20;;
19456;SDS011;9867;48.094;11.478;2023-04-03T09:56:52;4.33;;;3.60;;
19456;SDS011;9867;48.094;11.478;2023-04-03T09:59:22;4.07;;;3.70;;
19456;SDS011;9867;48.094;11.478;2023-04-03T10:01:57;4.23;;;3.80;;
19456;SDS011;9867;48.094;11.478;2023-04-03T10:04:28;4.00;;;3.60;;
19456;SDS011;9867;48.094;11.478;2023-04-03T10:07:25;4.50;;;3.70;;
19456;SDS011;9867;48.094;11.478;2023-04-03T10:09:56;4.67;;;4.27;;
19456;SDS011;9867;48.094;11.478;2023-04-03T10:12:29;4.70;;;4.30;;
19456;SDS011;9867;48.094;11.478;2023-04-03T10:14:58;4.50;;;4.10;;
19456;SDS011;9867;48.094;11.478;2023-04-03T10:17:39;5.13;;;4.00;;
19456;SDS011;9867;48.094;11.478;2023-04-03T10:20:23;5.30;;;4.80;;
19456;SDS011;9867;48.094;11.478;2023-04-03T10:23:00;4.83;;;4.07;;
19456;SDS011;9867;48.094;11.478;2023-04-03T10:25:42;4.50;;;4.10;;
19456;SDS011;9867;48.094;11.478;2023-04-03T10:28:15;4.53;;;4.13;;
19456;SDS011;9867;48.094;11.478;2023-04-03T10:30:50;4.07;;;3.73;;
19456;SDS011;9867;48.094;11.478;2023-04-03T10:33:33;4.30;;;3.90;;
19456;SDS011;9867;48.094;11.478;2023-04-03T10:36:15;3.83;;;3.53;;
19456;SDS011;9867;48.094;11.478;2023-04-03T10:38:55;4.40;;;3.93;;
19456;SDS011;9867;48.094;11.478;2023-04-03T10:41:33;4.70;;;4.17;;
19456;SDS011;9867;48.094;11.478;2023-04-03T10:44:13;6.00;;;4.33;;
19456;SDS011;9867;48.094;11.478;2023-04-03T10:46:49;4.40;;;4.10;;
19456;SDS011;9867;48.094;11.478;2023-04-03T10:49:23;4.60;;;4.20;;
19456;SDS011;9867;48.094;11.478;2023-04-03T10:52:05;4.83;;;4.10;;
19456;SDS011;9867;48.094;11.478;2023-04-03T10:54:41;4.60;;;4.20;;
19456;SDS011;9867;48.094;11.478;2023-04-03T10:57:14;4.60;;;4.10;;
19456;SDS011;9867;48.094;11.478;2023-04-03T10:59:43;7.73;;;4.80;;
19456;SDS011;9867;48.094;11.478;2023-04-03T11:02:17;4.23;;;3.80;;
19456;SDS011;9867;48.094;11.478;2023-04-03T11:04:55;4.67;;;4.27;;
19456;SDS011;9867;48.094;11.478;2023-04-03T11:07:29;4.33;;;3.80;;
19456;SDS011;9867;48.094;11.478;2023-04-03T11:10:05;4.63;;;4.00;;
19456;SDS011;9867;48.094;11.478;2023-04-03T11:12:41;4.60;;;4.20;;
19456;SDS011;9867;48.094;11.478;2023-04-03T11:15:14;5.43;;;4.50;;
19456;SDS011;9867;48.094;11.478;2023-04-03T11:17:45;4.97;;;3.80;;
19456;SDS011;9867;48.094;11.478;2023-04-03T11:20:19;5.00;;;3.93;;
19456;SDS011;9867;48.094;11.478;2023-04-03T11:22:57;5.50;;;3.80;;
19456;SDS011;9867;48.094;11.478;2023-04-03T11:25:29;4.40;;;4.00;;
19456;SDS011;9867;48.094;11.478;2023-04-03T11:28:00;3.70;;;3.33;;
19456;SDS011;9867;48.094;11.478;2023-04-03T11:30:31;5.00;;;3.83;;
19456;SDS011;9867;48.094;11.478;2023-04-03T11:33:12;4.30;;;3.90;;
19456;SDS011;9867;48.094;11.478;2023-04-03T11:35:49;3.87;;;3.40;;
19456;SDS011;9867;48.094;11.478;2023-04-03T11:38:22;4.90;;;3.60;;
19456;SDS011;9867;48.094;11.478;2023-04-03T11:40:55;4.43;;;3.90;;
19456;SDS011;9867;48.094;11.478;2023-04-03T11:43:25;5.03;;;3.60;;
19456;SDS011;9867;48.094;11.478;2023-04-03T11:45:58;3.30;;;3.00;;
19456;SDS011;9867;48.094;11.478;2023-04-03T11:48:48;6.10;;;3.50;;
19456;SDS011;9867;48.094;11.478;2023-04-03T12:00:49;3.67;;;3.03;;
19456;SDS011;9867;48.094;11.478;2023-04-03T12:03:29;3.60;;;2.93;;
19456;SDS011;9867;48.094;11.478;2023-04-03T12:09:02;3.83;;;3.10;;
19456;SDS011;9867;48.094;11.478;2023-04-03T12:11:51;5.47;;;2.83;;
19456;SDS011;9867;48.094;11.478;2023-04-03T12:14:21;3.57;;;2.57;;
19456;SDS011;9867;48.094;11.478;2023-04-03T12:16:52;4.07;;;2.93;;
19456;SDS011;9867;48.094;11.478;2023-04-03T12:19:29;3.40;;;2.73;;
19456;SDS011;9867;48.094;11.478;2023-04-03T12:22:15;3.60;;;2.57;;
19456;SDS011;9867;48.094;11.478;2023-04-03T12:24:47;3.47;;;3.07;;
19456;SDS011;9867;48.094;11.478;2023-04-03T12:27:23;4.60;;;2.93;;
19456;SDS011;9867;48.094;11.478;2023-04-03T12:29:59;3.90;;;3.10;;
19456;SDS011;9867;48.094;11.478;2023-04-03T12:32:41;5.10;;;3.00;;
19456;SDS011;9867;48.094;11.478;2023-04-03T12:35:36;2.63;;;2.43;;
19456;SDS011;9867;48.094;11.478;2023-04-03T12:41:04;3.07;;;2.80;;
19456;SDS011;9867;48.094;11.478;2023-04-03T12:43:53;2.93;;;2.63;;
19456;SDS011;9867;48.094;11.478;2023-04-03T12:46:35;4.67;;;2.80;;
19456;SDS011;9867;48.094;11.478;2023-04-03T12:49:12;3.93;;;2.63;;
19456;SDS011;9867;48.094;11.478;2023-04-03T12:51:50;3.73;;;2.90;;
19456;SDS011;9867;48.094;11.478;2023-04-03T12:54:19;2.67;;;2.47;;
19456;SDS011;9867;48.094;11.478;2023-04-03T12:56:50;3.97;;;2.77;;
19456;SDS011;9867;48.094;11.478;2023-04-03T12:59:20;3.43;;;2.50;;
19456;SDS011;9867;48.094;11.478;2023-04-03T13:01:53;3.33;;;2.37;;
19456;SDS011;9867;48.094;11.478;2023-04-03T13:04:22;2.73;;;2.53;;
19456;SDS011;9867;48.094;11.478;2023-04-03T13:06:50;3.77;;;2.67;;
19456;SDS011;9867;48.094;11.478;2023-04-03T13:09:19;3.73;;;2.67;;
19456;SDS011;9867;48.094;11.478;2023-04-03T13:11:53;3.93;;;2.57;;
19456;SDS011;9867;48.094;11.478;2023-04-03T13:14:27;2.57;;;2.37;;
19456;SDS011;9867;48.094;11.478;2023-04-03T13:16:57;2.80;;;2.10;;
19456;SDS011;9867;48.094;11.478;2023-04-03T13:19:27;3.00;;;2.63;;
19456;SDS011;9867;48.094;11.478;2023-04-03T13:21:57;3.00;;;2.60;;
19456;SDS011;9867;48.094;11.478;2023-04-03T13:24:29;3.50;;;2.43;;
19456;SDS011;9867;48.094;11.478;2023-04-03T13:27:00;4.20;;;2.80;;
19456;SDS011;9867;48.094;11.478;2023-04-03T13:29:30;2.73;;;2.53;;
19456;SDS011;9867;48.094;11.478;2023-04-03T13:32:00;2.83;;;2.63;;
19456;SDS011;9867;48.094;11.478;2023-04-03T13:34:35;3.03;;;2.50;;
19456;SDS011;9867;48.094;11.478;2023-04-03T13:37:04;2.70;;;2.50;;
19456;SDS011;9867;48.094;11.478;2023-04-03T13:39:34;3.07;;;2.43;;
19456;SDS011;9867;48.094;11.478;2023-04-03T13:42:14;3.33;;;2.30;;
19456;SDS011;9867;48.094;11.478;2023-04-03T13:44:46;2.73;;;2.30;;
19456;SDS011;9867;48.094;11.478;2023-04-03T13:47:16;4.70;;;2.20;;
19456;SDS011;9867;48.094;11.478;2023-04-03T13:49:58;2.20;;;2.03;;
19456;SDS011;9867;48.094;11.478;2023-04-03T13:52:29;2.80;;;2.10;;
19456;SDS011;9867;48.094;11.478;2023-04-03T13:55:03;2.40;;;2.20;;
19456;SDS011;9867;48.094;11.478;2023-04-03T13:57:51;3.30;;;2.40;;
19456;SDS011;9867;48.094;11.478;2023-04-03T14:00:30;2.37;;;2.13;;
19456;SDS011;9867;48.094;11.478;2023-04-03T14:03:12;3.10;;;2.60;;
19456;SDS011;9867;48.094;11.478;2023-04-03T14:05:41;2.57;;;2.37;;
19456;SDS011;9867;48.094;11.478;2023-04-03T14:08:08;3.33;;;2.57;;
19456;SDS011;9867;48.094;11.478;2023-04-03T14:10:36;2.67;;;2.17;;
19456;SDS011;9867;48.094;11.478;2023-04-03T14:13:06;2.67;;;2.47;;
19456;SDS011;9867;48.094;11.478;2023-04-03T14:15:35;4.60;;;2.30;;
19456;SDS011;9867;48.094;11.478;2023-04-03T14:18:03;3.07;;;2.20;;
19456;SDS011;9867;48.094;11.478;2023-04-03T14:20:33;2.77;;;2.23;;
19456;SDS011;9867;48.094;11.478;2023-04-03T14:23:01;2.87;;;2.63;;
19456;SDS011;9867;48.094;11.478;2023-04-03T14:25:29;2.70;;;2.33;;
19456;SDS011;9867;48.094;11.478;2023-04-03T14:27:57;2.50;;;2.30;;
19456;SDS011;9867;48.094;11.478;2023-04-03T14:30:27;3.03;;;2.73;;
19456;SDS011;9867;48.094;11.478;2023-04-03T14:32:59;3.40;;;2.20;;
19456;SDS011;9867;48.094;11.478;2023-04-03T14:35:27;2.60;;;2.40;;
19456;SDS011;9867;48.094;11.478;2023-04-03T14:37:55;2.40;;;2.20;;
19456;SDS011;9867;48.094;11.478;2023-04-03T14:40:24;4.20;;;2.30;;
19456;SDS011;9867;48.094;11.478;2023-04-03T14:42:54;4.43;;;2.40;;
19456;SDS011;9867;48.094;11.478;2023-04-03T14:45:23;3.83;;;2.40;;
19456;SDS011;9867;48.094;11.478;2023-04-03T14:47:53;4.60;;;2.63;;
19456;SDS011;9867;48.094;11.478;2023-04-03T14:50:25;2.40;;;2.20;;
19456;SDS011;9867;48.094;11.478;2023-04-03T14:52:55;3.80;;;2.40;;
19456;SDS011;9867;48.094;11.478;2023-04-03T14:55:25;2.73;;;2.50;;
19456;SDS011;9867;48.094;11.478;2023-04-03T14:57:53;2.60;;;2.17;;
19456;SDS011;9867;48.094;11.478;2023-04-03T15:00:22;2.53;;;2.27;;
19456;SDS011;9867;48.094;11.478;2023-04-03T15:02:50;2.93;;;2.63;;
19456;SDS011;9867;48.094;11.478;2023-04-03T15:05:18;2.93;;;2.30;;
19456;SDS011;9867;48.094;11.478;2023-04-03T15:07:48;2.47;;;2.10;;
19456;SDS011;9867;48.094;11.478;2023-04-03T15:10:20;2.57;;;2.37;;
19456;SDS011;9867;48.094;11.478;2023-04-03T15:12:50;2.13;;;1.93;;
19456;SDS011;9867;48.094;11.478;2023-04-03T15:15:19;2.90;;;2.53;;
19456;SDS011;9867;48.094;11.478;2023-04-03T15:17:50;3.47;;;2.30;;
19456;SDS011;9867;48.094;11.478;2023-04-03T15:20:22;4.03;;;1.90;;
19456;SDS011;9867;48.094;11.478;2023-04-03T15:22:53;2.27;;;2.07;;
19456;SDS011;9867;48.094;11.478;2023-04-03T15:25:22;2.37;;;2.00;;
19456;SDS011;9867;48.094;11.478;2023-04-03T15:27:52;3.43;;;2.33;;
19456;SDS011;9867;48.094;11.478;2023-04-03T15:30:20;3.13;;;2.27;;
19456;SDS011;9867;48.094;11.478;2023-04-03T15:32:51;4.63;;;2.13;;
19456;SDS011;9867;48.094;11.478;2023-04-03T15:35:19;2.70;;;2.50;;
19456;SDS011;9867;48.094;11.478;2023-04-03T15:37:47;2.13;;;1.97;;